Startpagina
METAR-TAF:

METAR-TAF

Vliegvelden :

Funchal, Madeira, Portugal

Aeroporto da Madeira

breedte: 32-41-52N, lengte: 016-46-28W, hoogte: 59 m

Actueel weer

Dit bericht is 29 minuten geleden gemaakt, om 04:00 UTC
Wind 9 kt uit het noordnoordoosten, variërend tussen het noordnoordwesten en het oostnoordoosten
Temperatuur 18°C
Vochtigheid 77%
Druk 1028 hPa
Zicht 10 km of meer
Verspreide wolken op 1500 ft

METAR: LPMA 140400Z 02009KT 330V070 9999 SCT015 18/14 Q1028

Tijdstip: 04:29 (04:29 UTC)

Verwachting

Dit bericht is 5 uur en het 29 minuten geleden gemaakt, om 23:00 UTC
Verwachting geldig van 14 om 00 UTC tot 14 om 24 UTC
Wind 12 kt uit het noordnoordoosten
Zicht 10 km of meer
Verspreide wolken op 1500 ft
Kans 30% :
Tijdelijke
van 14 om 00 UTC tot 14 om 12 UTC
Wind 15 kt uit het noordnoordoosten met uitschieters tot 25 kt
Zicht: 6000 m
Gebroken wolken op 1300 ft
lichte regen

TAF: LPMA 132300Z 1400/1424 02012KT 9999 SCT015 PROB30 TEMPO 1400/1412 02015G25KT 6000 -RA BKN013

Waarnemingen en weersverwachtingen van meer dan 4000 vliegvelden (METAR en TAF).

De beschikbare stations zijn de gele en rode punten op de kaart.

Ga met uw muis naar het station om de naam te zien.

Klik dan om waarnemingen en weersverwachtingen te zien.

kaart wijzigen: klik op de groene knoppen met een zwart kruis om in te zoomen, op de groene knop met een streepje om uit te zoomen of op de groene pijlen voor aangrenzende kaarten.


METAR-TAF: